sensor_id;sensor_type;location;lat;lon;timestamp;temperature;humidity
9057;DHT22;4563;54.756;9.400;2023-03-01T00:01:54;5.20;72.00
9057;DHT22;4563;54.756;9.400;2023-03-01T00:04:21;5.20;72.00
9057;DHT22;4563;54.756;9.400;2023-03-01T00:06:48;5.10;71.90
9057;DHT22;4563;54.756;9.400;2023-03-01T00:09:17;5.10;71.90
9057;DHT22;4563;54.756;9.400;2023-03-01T00:11:44;5.10;71.90
9057;DHT22;4563;54.756;9.400;2023-03-01T00:14:11;5.10;72.10
9057;DHT22;4563;54.756;9.400;2023-03-01T00:16:40;5.00;72.00
9057;DHT22;4563;54.756;9.400;2023-03-01T00:19:09;5.00;72.00
9057;DHT22;4563;54.756;9.400;2023-03-01T00:21:37;5.00;72.10
9057;DHT22;4563;54.756;9.400;2023-03-01T00:24:05;5.00;72.00
9057;DHT22;4563;54.756;9.400;2023-03-01T00:26:33;5.00;72.10
9057;DHT22;4563;54.756;9.400;2023-03-01T00:29:00;5.00;72.00
9057;DHT22;4563;54.756;9.400;2023-03-01T00:31:29;5.00;72.10
9057;DHT22;4563;54.756;9.400;2023-03-01T00:33:59;5.00;72.20
9057;DHT22;4563;54.756;9.400;2023-03-01T00:36:28;5.00;72.30
9057;DHT22;4563;54.756;9.400;2023-03-01T00:38:56;5.00;72.30
9057;DHT22;4563;54.756;9.400;2023-03-01T00:41:23;5.00;72.40
9057;DHT22;4563;54.756;9.400;2023-03-01T00:43:53;4.90;72.30
9057;DHT22;4563;54.756;9.400;2023-03-01T00:46:22;4.90;72.30
9057;DHT22;4563;54.756;9.400;2023-03-01T00:48:49;4.90;72.40
9057;DHT22;4563;54.756;9.400;2023-03-01T00:51:18;4.90;72.40
9057;DHT22;4563;54.756;9.400;2023-03-01T00:53:46;4.90;72.40
9057;DHT22;4563;54.756;9.400;2023-03-01T00:56:14;4.90;72.50
9057;DHT22;4563;54.756;9.400;2023-03-01T00:58:41;4.80;72.40
9057;DHT22;4563;54.756;9.400;2023-03-01T01:01:11;4.90;72.50
9057;DHT22;4563;54.756;9.400;2023-03-01T01:03:43;4.90;72.50
9057;DHT22;4563;54.756;9.400;2023-03-01T01:06:14;4.80;72.50
9057;DHT22;4563;54.756;9.400;2023-03-01T01:08:40;4.80;72.50
9057;DHT22;4563;54.756;9.400;2023-03-01T01:11:09;4.80;72.50
9057;DHT22;4563;54.756;9.400;2023-03-01T01:13:36;4.80;72.50
9057;DHT22;4563;54.756;9.400;2023-03-01T01:16:03;4.80;72.40
9057;DHT22;4563;54.756;9.400;2023-03-01T01:18:32;4.80;72.50
9057;DHT22;4563;54.756;9.400;2023-03-01T01:21:04;4.80;72.40
9057;DHT22;4563;54.756;9.400;2023-03-01T01:23:31;4.80;72.40
9057;DHT22;4563;54.756;9.400;2023-03-01T01:26:03;4.70;72.20
9057;DHT22;4563;54.756;9.400;2023-03-01T01:28:31;4.70;72.40
9057;DHT22;4563;54.756;9.400;2023-03-01T01:30:58;4.70;72.10
9057;DHT22;4563;54.756;9.400;2023-03-01T01:33:25;4.70;72.20
9057;DHT22;4563;54.756;9.400;2023-03-01T01:35:54;4.70;72.20
9057;DHT22;4563;54.756;9.400;2023-03-01T01:38:20;4.60;72.10
9057;DHT22;4563;54.756;9.400;2023-03-01T01:40:49;4.60;72.10
9057;DHT22;4563;54.756;9.400;2023-03-01T01:43:19;4.60;72.10
9057;DHT22;4563;54.756;9.400;2023-03-01T01:45:47;4.60;72.20
9057;DHT22;4563;54.756;9.400;2023-03-01T01:48:18;4.60;72.10
9057;DHT22;4563;54.756;9.400;2023-03-01T01:50:45;4.60;72.20
9057;DHT22;4563;54.756;9.400;2023-03-01T01:53:18;4.60;72.20
9057;DHT22;4563;54.756;9.400;2023-03-01T01:55:49;4.50;72.10
9057;DHT22;4563;54.756;9.400;2023-03-01T01:58:19;4.50;72.10
9057;DHT22;4563;54.756;9.400;2023-03-01T02:00:47;4.50;72.10
9057;DHT22;4563;54.756;9.400;2023-03-01T02:03:17;4.50;72.10
9057;DHT22;4563;54.756;9.400;2023-03-01T02:05:49;4.50;72.10
9057;DHT22;4563;54.756;9.400;2023-03-01T02:08:20;4.50;72.20
9057;DHT22;4563;54.756;9.400;2023-03-01T02:10:49;4.50;72.20
9057;DHT22;4563;54.756;9.400;2023-03-01T02:13:17;4.50;72.10
9057;DHT22;4563;54.756;9.400;2023-03-01T02:15:44;4.50;72.10
9057;DHT22;4563;54.756;9.400;2023-03-01T02:18:13;4.40;72.00
9057;DHT22;4563;54.756;9.400;2023-03-01T02:20:48;4.40;72.00
9057;DHT22;4563;54.756;9.400;2023-03-01T02:23:19;4.40;72.00
9057;DHT22;4563;54.756;9.400;2023-03-01T02:25:52;4.40;72.00
9057;DHT22;4563;54.756;9.400;2023-03-01T02:28:31;4.40;72.00
9057;DHT22;4563;54.756;9.400;2023-03-01T02:30:58;4.30;71.90
9057;DHT22;4563;54.756;9.400;2023-03-01T02:33:44;4.30;72.00
9057;DHT22;4563;54.756;9.400;2023-03-01T02:36:17;4.30;72.00
9057;DHT22;4563;54.756;9.400;2023-03-01T02:38:45;4.30;72.00
9057;DHT22;4563;54.756;9.400;2023-03-01T02:41:15;4.30;72.10
9057;DHT22;4563;54.756;9.400;2023-03-01T02:43:45;4.30;72.00
9057;DHT22;4563;54.756;9.400;2023-03-01T02:46:16;4.20;71.90
9057;DHT22;4563;54.756;9.400;2023-03-01T02:48:45;4.20;71.90
9057;DHT22;4563;54.756;9.400;2023-03-01T02:51:22;4.20;71.90
9057;DHT22;4563;54.756;9.400;2023-03-01T02:54:03;4.20;71.90
9057;DHT22;4563;54.756;9.400;2023-03-01T02:56:35;4.20;71.90
9057;DHT22;4563;54.756;9.400;2023-03-01T02:59:03;4.20;71.80
9057;DHT22;4563;54.756;9.400;2023-03-01T03:01:31;4.20;71.80
9057;DHT22;4563;54.756;9.400;2023-03-01T03:04:04;4.20;71.70
9057;DHT22;4563;54.756;9.400;2023-03-01T03:06:31;4.10;71.60
9057;DHT22;4563;54.756;9.400;2023-03-01T03:08:58;4.10;71.60
9057;DHT22;4563;54.756;9.400;2023-03-01T03:11:25;4.10;71.60
9057;DHT22;4563;54.756;9.400;2023-03-01T03:13:52;4.10;71.60
9057;DHT22;4563;54.756;9.400;2023-03-01T03:16:20;4.10;71.60
9057;DHT22;4563;54.756;9.400;2023-03-01T03:18:47;4.10;71.50
9057;DHT22;4563;54.756;9.400;2023-03-01T03:21:15;4.10;71.60
9057;DHT22;4563;54.756;9.400;2023-03-01T03:23:43;4.00;71.40
9057;DHT22;4563;54.756;9.400;2023-03-01T03:26:09;4.00;71.30
9057;DHT22;4563;54.756;9.400;2023-03-01T03:28:39;4.00;71.30
9057;DHT22;4563;54.756;9.400;2023-03-01T03:31:07;4.00;71.30
9057;DHT22;4563;54.756;9.400;2023-03-01T03:33:35;4.00;71.40
9057;DHT22;4563;54.756;9.400;2023-03-01T03:36:02;3.90;71.20
9057;DHT22;4563;54.756;9.400;2023-03-01T03:38:29;3.90;71.40
9057;DHT22;4563;54.756;9.400;2023-03-01T03:41:01;3.90;71.30
9057;DHT22;4563;54.756;9.400;2023-03-01T03:43:30;3.90;71.30
9057;DHT22;4563;54.756;9.400;2023-03-01T03:45:57;3.90;71.30
9057;DHT22;4563;54.756;9.400;2023-03-01T03:48:25;3.90;71.30
9057;DHT22;4563;54.756;9.400;2023-03-01T03:50:55;3.90;71.30
9057;DHT22;4563;54.756;9.400;2023-03-01T03:53:24;3.80;71.20
9057;DHT22;4563;54.756;9.400;2023-03-01T03:55:52;3.80;71.20
9057;DHT22;4563;54.756;9.400;2023-03-01T03:58:20;3.80;71.20
9057;DHT22;4563;54.756;9.400;2023-03-01T04:00:51;3.80;71.20
9057;DHT22;4563;54.756;9.400;2023-03-01T04:03:19;3.80;71.20
9057;DHT22;4563;54.756;9.400;2023-03-01T04:05:47;3.80;71.20
9057;DHT22;4563;54.756;9.400;2023-03-01T04:08:17;3.70;71.00
9057;DHT22;4563;54.756;9.400;2023-03-01T04:10:49;3.70;71.00
9057;DHT22;4563;54.756;9.400;2023-03-01T04:13:17;3.70;71.00
9057;DHT22;4563;54.756;9.400;2023-03-01T04:15:45;3.70;71.00
9057;DHT22;4563;54.756;9.400;2023-03-01T04:18:13;3.60;70.80
9057;DHT22;4563;54.756;9.400;2023-03-01T04:20:40;3.70;71.00
9057;DHT22;4563;54.756;9.400;2023-03-01T04:23:09;3.60;70.90
9057;DHT22;4563;54.756;9.400;2023-03-01T04:25:45;3.60;70.90
9057;DHT22;4563;54.756;9.400;2023-03-01T04:28:15;3.60;70.90
9057;DHT22;4563;54.756;9.400;2023-03-01T04:30:42;3.60;70.80
9057;DHT22;4563;54.756;9.400;2023-03-01T04:33:09;3.50;70.60
9057;DHT22;4563;54.756;9.400;2023-03-01T04:35:37;3.50;70.60
9057;DHT22;4563;54.756;9.400;2023-03-01T04:38:04;3.50;70.60
9057;DHT22;4563;54.756;9.400;2023-03-01T04:40:31;3.50;70.60
9057;DHT22;4563;54.756;9.400;2023-03-01T04:43:00;3.50;70.60
9057;DHT22;4563;54.756;9.400;2023-03-01T04:45:27;3.40;70.50
9057;DHT22;4563;54.756;9.400;2023-03-01T04:47:54;3.40;70.50
9057;DHT22;4563;54.756;9.400;2023-03-01T04:50:23;3.40;70.50
9057;DHT22;4563;54.756;9.400;2023-03-01T04:52:51;3.40;70.50
9057;DHT22;4563;54.756;9.400;2023-03-01T04:55:18;3.40;70.50
9057;DHT22;4563;54.756;9.400;2023-03-01T04:57:45;3.40;70.50
9057;DHT22;4563;54.756;9.400;2023-03-01T05:00:14;3.30;70.50
9057;DHT22;4563;54.756;9.400;2023-03-01T05:02:49;3.30;71.40
9057;DHT22;4563;54.756;9.400;2023-03-01T05:05:23;3.30;70.70
9057;DHT22;4563;54.756;9.400;2023-03-01T05:07:52;3.30;70.70
9057;DHT22;4563;54.756;9.400;2023-03-01T05:10:19;3.30;70.70
9057;DHT22;4563;54.756;9.400;2023-03-01T05:12:46;3.30;70.60
9057;DHT22;4563;54.756;9.400;2023-03-01T05:15:14;3.30;70.60
9057;DHT22;4563;54.756;9.400;2023-03-01T05:17:41;3.30;70.60
9057;DHT22;4563;54.756;9.400;2023-03-01T05:20:09;3.20;70.50
9057;DHT22;4563;54.756;9.400;2023-03-01T05:22:36;3.20;70.60
9057;DHT22;4563;54.756;9.400;2023-03-01T05:25:04;3.20;70.60
9057;DHT22;4563;54.756;9.400;2023-03-01T05:27:32;3.20;70.70
9057;DHT22;4563;54.756;9.400;2023-03-01T05:29:59;3.20;70.60
9057;DHT22;4563;54.756;9.400;2023-03-01T05:32:41;3.20;70.60
9057;DHT22;4563;54.756;9.400;2023-03-01T05:35:09;3.10;70.70
9057;DHT22;4563;54.756;9.400;2023-03-01T05:37:39;3.10;70.60
9057;DHT22;4563;54.756;9.400;2023-03-01T05:40:07;3.20;70.80
9057;DHT22;4563;54.756;9.400;2023-03-01T05:42:42;3.10;70.70
9057;DHT22;4563;54.756;9.400;2023-03-01T05:45:09;3.10;70.70
9057;DHT22;4563;54.756;9.400;2023-03-01T05:47:39;3.10;70.70
9057;DHT22;4563;54.756;9.400;2023-03-01T05:50:11;3.00;70.60
9057;DHT22;4563;54.756;9.400;2023-03-01T05:52:38;3.10;70.80
9057;DHT22;4563;54.756;9.400;2023-03-01T05:55:05;3.00;70.70
9057;DHT22;4563;54.756;9.400;2023-03-01T05:57:32;3.00;70.80
9057;DHT22;4563;54.756;9.400;2023-03-01T05:59:59;3.00;70.80
9057;DHT22;4563;54.756;9.400;2023-03-01T06:02:26;3.00;70.70
9057;DHT22;4563;54.756;9.400;2023-03-01T06:04:56;3.10;70.90
9057;DHT22;4563;54.756;9.400;2023-03-01T06:07:23;3.00;70.80
9057;DHT22;4563;54.756;9.400;2023-03-01T06:09:49;3.00;70.80
9057;DHT22;4563;54.756;9.400;2023-03-01T06:12:16;3.00;70.80
9057;DHT22;4563;54.756;9.400;2023-03-01T06:14:45;3.00;70.80
9057;DHT22;4563;54.756;9.400;2023-03-01T06:17:12;3.00;70.80
9057;DHT22;4563;54.756;9.400;2023-03-01T06:19:39;3.00;70.80
9057;DHT22;4563;54.756;9.400;2023-03-01T06:22:07;3.00;70.90
9057;DHT22;4563;54.756;9.400;2023-03-01T06:24:34;3.00;70.90
9057;DHT22;4563;54.756;9.400;2023-03-01T06:27:01;3.00;71.00
9057;DHT22;4563;54.756;9.400;2023-03-01T06:29:28;2.90;70.90
9057;DHT22;4563;54.756;9.400;2023-03-01T06:31:55;2.90;71.00
9057;DHT22;4563;54.756;9.400;2023-03-01T06:34:22;3.00;71.80
9057;DHT22;4563;54.756;9.400;2023-03-01T06:36:48;2.90;71.00
9057;DHT22;4563;54.756;9.400;2023-03-01T06:39:16;3.00;71.10
9057;DHT22;4563;54.756;9.400;2023-03-01T06:41:43;3.00;71.10
9057;DHT22;4563;54.756;9.400;2023-03-01T06:44:10;3.00;71.20
9057;DHT22;4563;54.756;9.400;2023-03-01T06:46:38;3.00;71.20
9057;DHT22;4563;54.756;9.400;2023-03-01T06:49:05;3.00;71.40
9057;DHT22;4563;54.756;9.400;2023-03-01T06:51:35;3.00;71.30
9057;DHT22;4563;54.756;9.400;2023-03-01T06:54:03;2.90;71.30
9057;DHT22;4563;54.756;9.400;2023-03-01T06:56:31;2.90;71.20
9057;DHT22;4563;54.756;9.400;2023-03-01T06:58:58;3.00;71.30
9057;DHT22;4563;54.756;9.400;2023-03-01T07:01:25;3.00;71.40
9057;DHT22;4563;54.756;9.400;2023-03-01T07:03:52;3.00;71.40
9057;DHT22;4563;54.756;9.400;2023-03-01T07:06:19;3.00;71.40
9057;DHT22;4563;54.756;9.400;2023-03-01T07:08:46;3.00;71.50
9057;DHT22;4563;54.756;9.400;2023-03-01T07:11:13;3.00;71.60
9057;DHT22;4563;54.756;9.400;2023-03-01T07:13:41;3.00;71.50
9057;DHT22;4563;54.756;9.400;2023-03-01T07:16:08;3.00;72.40
9057;DHT22;4563;54.756;9.400;2023-03-01T07:18:35;3.00;71.70
9057;DHT22;4563;54.756;9.400;2023-03-01T07:21:06;3.00;71.80
9057;DHT22;4563;54.756;9.400;2023-03-01T07:23:33;3.00;71.80
9057;DHT22;4563;54.756;9.400;2023-03-01T07:26:00;3.00;71.80
9057;DHT22;4563;54.756;9.400;2023-03-01T07:28:27;3.00;71.90
9057;DHT22;4563;54.756;9.400;2023-03-01T07:31:00;3.00;72.00
9057;DHT22;4563;54.756;9.400;2023-03-01T07:33:28;3.10;72.20
9057;DHT22;4563;54.756;9.400;2023-03-01T07:35:58;3.10;72.10
9057;DHT22;4563;54.756;9.400;2023-03-01T07:38:25;3.10;72.30
9057;DHT22;4563;54.756;9.400;2023-03-01T07:40:52;3.10;72.30
9057;DHT22;4563;54.756;9.400;2023-03-01T07:43:18;3.20;72.40
9057;DHT22;4563;54.756;9.400;2023-03-01T07:45:46;3.20;72.50
9057;DHT22;4563;54.756;9.400;2023-03-01T07:48:14;3.20;72.50
9057;DHT22;4563;54.756;9.400;2023-03-01T07:50:40;3.20;72.60
9057;DHT22;4563;54.756;9.400;2023-03-01T07:53:08;3.20;72.70
9057;DHT22;4563;54.756;9.400;2023-03-01T07:55:35;3.20;72.80
9057;DHT22;4563;54.756;9.400;2023-03-01T07:58:02;3.20;72.80
9057;DHT22;4563;54.756;9.400;2023-03-01T08:00:28;3.30;72.90
9057;DHT22;4563;54.756;9.400;2023-03-01T08:02:58;3.30;72.90
9057;DHT22;4563;54.756;9.400;2023-03-01T08:05:27;3.40;73.20
9057;DHT22;4563;54.756;9.400;2023-03-01T08:07:54;3.30;73.10
9057;DHT22;4563;54.756;9.400;2023-03-01T08:10:21;3.40;73.30
9057;DHT22;4563;54.756;9.400;2023-03-01T08:12:47;3.40;73.40
9057;DHT22;4563;54.756;9.400;2023-03-01T08:15:14;3.40;73.40
9057;DHT22;4563;54.756;9.400;2023-03-01T08:17:41;3.40;73.60
9057;DHT22;4563;54.756;9.400;2023-03-01T08:20:09;3.50;73.70
9057;DHT22;4563;54.756;9.400;2023-03-01T08:22:39;3.50;73.90
9057;DHT22;4563;54.756;9.400;2023-03-01T08:25:06;3.60;74.00
9057;DHT22;4563;54.756;9.400;2023-03-01T08:27:33;3.60;74.10
9057;DHT22;4563;54.756;9.400;2023-03-01T08:30:00;3.60;74.20
9057;DHT22;4563;54.756;9.400;2023-03-01T08:32:26;3.70;74.40
9057;DHT22;4563;54.756;9.400;2023-03-01T08:34:53;3.70;74.50
9057;DHT22;4563;54.756;9.400;2023-03-01T08:37:20;3.80;74.70
9057;DHT22;4563;54.756;9.400;2023-03-01T08:39:48;3.80;74.80
9057;DHT22;4563;54.756;9.400;2023-03-01T08:42:15;3.80;74.90
9057;DHT22;4563;54.756;9.400;2023-03-01T08:44:42;3.90;75.10
9057;DHT22;4563;54.756;9.400;2023-03-01T08:47:08;3.90;75.10
9057;DHT22;4563;54.756;9.400;2023-03-01T08:49:35;4.00;75.30
9057;DHT22;4563;54.756;9.400;2023-03-01T08:52:02;4.00;75.40
9057;DHT22;4563;54.756;9.400;2023-03-01T08:54:29;4.00;75.40
9057;DHT22;4563;54.756;9.400;2023-03-01T08:56:57;4.10;75.60
9057;DHT22;4563;54.756;9.400;2023-03-01T08:59:25;4.10;75.80
9057;DHT22;4563;54.756;9.400;2023-03-01T09:01:52;4.20;75.90
9057;DHT22;4563;54.756;9.400;2023-03-01T09:04:19;4.20;75.90
9057;DHT22;4563;54.756;9.400;2023-03-01T09:06:46;4.20;75.90
9057;DHT22;4563;54.756;9.400;2023-03-01T09:09:15;4.30;76.10
9057;DHT22;4563;54.756;9.400;2023-03-01T09:11:42;4.30;76.30
9057;DHT22;4563;54.756;9.400;2023-03-01T09:14:13;4.30;76.30
9057;DHT22;4563;54.756;9.400;2023-03-01T09:16:40;4.40;76.50
9057;DHT22;4563;54.756;9.400;2023-03-01T09:19:06;4.40;76.40
9057;DHT22;4563;54.756;9.400;2023-03-01T09:21:33;4.50;76.60
9057;DHT22;4563;54.756;9.400;2023-03-01T09:24:00;4.50;76.60
9057;DHT22;4563;54.756;9.400;2023-03-01T09:26:27;4.60;76.70
9057;DHT22;4563;54.756;9.400;2023-03-01T09:28:55;4.60;76.70
9057;DHT22;4563;54.756;9.400;2023-03-01T09:31:24;4.70;76.80
9057;DHT22;4563;54.756;9.400;2023-03-01T09:33:52;4.70;76.80
9057;DHT22;4563;54.756;9.400;2023-03-01T09:36:21;4.80;76.90
9057;DHT22;4563;54.756;9.400;2023-03-01T09:38:49;4.80;76.90
9057;DHT22;4563;54.756;9.400;2023-03-01T09:41:32;4.80;76.90
9057;DHT22;4563;54.756;9.400;2023-03-01T09:44:08;4.90;77.10
9057;DHT22;4563;54.756;9.400;2023-03-01T09:46:43;5.00;77.20
9057;DHT22;4563;54.756;9.400;2023-03-01T09:49:14;5.00;77.20
9057;DHT22;4563;54.756;9.400;2023-03-01T09:51:44;5.00;77.20
9057;DHT22;4563;54.756;9.400;2023-03-01T09:54:14;5.10;77.30
9057;DHT22;4563;54.756;9.400;2023-03-01T09:56:44;5.10;77.20
9057;DHT22;4563;54.756;9.400;2023-03-01T09:59:21;5.20;77.30
9057;DHT22;4563;54.756;9.400;2023-03-01T10:01:53;5.20;77.30
9057;DHT22;4563;54.756;9.400;2023-03-01T10:04:32;5.20;77.30
9057;DHT22;4563;54.756;9.400;2023-03-01T10:07:14;5.30;77.40
9057;DHT22;4563;54.756;9.400;2023-03-01T10:09:44;5.30;77.40
9057;DHT22;4563;54.756;9.400;2023-03-01T10:12:15;5.30;77.40
9057;DHT22;4563;54.756;9.400;2023-03-01T10:14:48;5.40;77.50
9057;DHT22;4563;54.756;9.400;2023-03-01T10:17:25;5.40;77.50
9057;DHT22;4563;54.756;9.400;2023-03-01T10:19:55;5.50;77.60
9057;DHT22;4563;54.756;9.400;2023-03-01T10:22:25;5.50;77.60
9057;DHT22;4563;54.756;9.400;2023-03-01T10:24:54;5.50;77.60
9057;DHT22;4563;54.756;9.400;2023-03-01T10:27:23;5.60;77.70
9057;DHT22;4563;54.756;9.400;2023-03-01T10:29:56;5.60;77.70
9057;DHT22;4563;54.756;9.400;2023-03-01T10:32:27;5.60;77.70
9057;DHT22;4563;54.756;9.400;2023-03-01T10:34:53;5.70;77.80
9057;DHT22;4563;54.756;9.400;2023-03-01T10:37:21;5.70;77.80
9057;DHT22;4563;54.756;9.400;2023-03-01T10:39:58;5.70;77.90
9057;DHT22;4563;54.756;9.400;2023-03-01T10:42:29;5.80;78.00
9057;DHT22;4563;54.756;9.400;2023-03-01T10:44:57;5.80;78.00
9057;DHT22;4563;54.756;9.400;2023-03-01T10:47:27;5.90;78.20
9057;DHT22;4563;54.756;9.400;2023-03-01T10:49:59;6.00;78.20
9057;DHT22;4563;54.756;9.400;2023-03-01T10:52:32;6.00;78.30
9057;DHT22;4563;54.756;9.400;2023-03-01T10:55:02;6.10;78.40
9057;DHT22;4563;54.756;9.400;2023-03-01T10:57:35;6.10;78.50
9057;DHT22;4563;54.756;9.400;2023-03-01T11:00:24;6.20;78.50
9057;DHT22;4563;54.756;9.400;2023-03-01T11:03:03;6.20;78.30
9057;DHT22;4563;54.756;9.400;2023-03-01T11:05:36;6.30;78.40
9057;DHT22;4563;54.756;9.400;2023-03-01T11:08:03;6.30;78.40
9057;DHT22;4563;54.756;9.400;2023-03-01T11:10:32;6.40;78.40
9057;DHT22;4563;54.756;9.400;2023-03-01T11:13:07;6.40;78.50
9057;DHT22;4563;54.756;9.400;2023-03-01T11:15:35;6.50;78.50
9057;DHT22;4563;54.756;9.400;2023-03-01T11:18:03;6.50;78.40
9057;DHT22;4563;54.756;9.400;2023-03-01T11:20:33;6.60;78.40
9057;DHT22;4563;54.756;9.400;2023-03-01T11:23:04;6.60;78.40
9057;DHT22;4563;54.756;9.400;2023-03-01T11:25:34;6.70;78.30
9057;DHT22;4563;54.756;9.400;2023-03-01T11:28:04;6.70;78.30
9057;DHT22;4563;54.756;9.400;2023-03-01T11:30:35;6.70;78.20
9057;DHT22;4563;54.756;9.400;2023-03-01T11:33:12;6.80;78.20
9057;DHT22;4563;54.756;9.400;2023-03-01T11:35:44;6.80;78.00
9057;DHT22;4563;54.756;9.400;2023-03-01T11:38:19;6.90;78.00
9057;DHT22;4563;54.756;9.400;2023-03-01T11:40:50;7.00;78.10
9057;DHT22;4563;54.756;9.400;2023-03-01T11:43:23;7.00;77.90
9057;DHT22;4563;54.756;9.400;2023-03-01T11:46:17;7.00;77.80
9057;DHT22;4563;54.756;9.400;2023-03-01T11:49:00;7.10;77.80
9057;DHT22;4563;54.756;9.400;2023-03-01T11:51:41;7.10;77.60
9057;DHT22;4563;54.756;9.400;2023-03-01T11:57:41;7.20;77.40
9057;DHT22;4563;54.756;9.400;2023-03-01T12:00:34;7.20;77.40
9057;DHT22;4563;54.756;9.400;2023-03-01T12:03:22;7.30;77.40
9057;DHT22;4563;54.756;9.400;2023-03-01T12:06:30;7.30;77.30
9057;DHT22;4563;54.756;9.400;2023-03-01T12:09:18;7.30;77.10
9057;DHT22;4563;54.756;9.400;2023-03-01T12:12:02;7.30;77.00
9057;DHT22;4563;54.756;9.400;2023-03-01T12:14:52;7.40;77.00
9057;DHT22;4563;54.756;9.400;2023-03-01T12:20:28;7.40;76.90
9057;DHT22;4563;54.756;9.400;2023-03-01T12:23:52;7.40;77.00
9057;DHT22;4563;54.756;9.400;2023-03-01T12:26:27;7.50;77.10
9057;DHT22;4563;54.756;9.400;2023-03-01T12:29:07;7.50;76.90
9057;DHT22;4563;54.756;9.400;2023-03-01T12:37:41;7.70;76.60
9057;DHT22;4563;54.756;9.400;2023-03-01T12:40:33;7.70;76.40
9057;DHT22;4563;54.756;9.400;2023-03-01T12:43:10;7.70;76.30
9057;DHT22;4563;54.756;9.400;2023-03-01T12:45:47;7.80;76.20
9057;DHT22;4563;54.756;9.400;2023-03-01T12:48:28;7.80;76.10
9057;DHT22;4563;54.756;9.400;2023-03-01T12:51:01;7.80;76.00
9057;DHT22;4563;54.756;9.400;2023-03-01T12:53:31;7.80;76.10
9057;DHT22;4563;54.756;9.400;2023-03-01T12:56:02;7.90;76.10
9057;DHT22;4563;54.756;9.400;2023-03-01T12:58:33;7.90;76.00
9057;DHT22;4563;54.756;9.400;2023-03-01T13:01:09;8.00;76.00
9057;DHT22;4563;54.756;9.400;2023-03-01T13:04:01;8.00;76.00
9057;DHT22;4563;54.756;9.400;2023-03-01T13:06:35;8.00;75.90
9057;DHT22;4563;54.756;9.400;2023-03-01T13:09:11;8.00;75.80
9057;DHT22;4563;54.756;9.400;2023-03-01T13:11:43;8.10;75.80
9057;DHT22;4563;54.756;9.400;2023-03-01T13:14:37;8.10;75.70
9057;DHT22;4563;54.756;9.400;2023-03-01T13:17:31;8.20;75.80
9057;DHT22;4563;54.756;9.400;2023-03-01T13:19:59;8.10;75.70
9057;DHT22;4563;54.756;9.400;2023-03-01T13:22:29;8.20;75.70
9057;DHT22;4563;54.756;9.400;2023-03-01T13:25:13;8.20;75.60
9057;DHT22;4563;54.756;9.400;2023-03-01T13:27:42;8.20;75.60
9057;DHT22;4563;54.756;9.400;2023-03-01T13:30:41;8.30;75.70
9057;DHT22;4563;54.756;9.400;2023-03-01T13:36:46;8.30;75.70
9057;DHT22;4563;54.756;9.400;2023-03-01T13:39:30;8.40;75.70
9057;DHT22;4563;54.756;9.400;2023-03-01T13:41:59;8.40;75.60
9057;DHT22;4563;54.756;9.400;2023-03-01T13:44:31;8.40;75.50
9057;DHT22;4563;54.756;9.400;2023-03-01T13:47:04;8.40;75.40
9057;DHT22;4563;54.756;9.400;2023-03-01T13:49:42;8.40;75.40
9057;DHT22;4563;54.756;9.400;2023-03-01T13:52:27;8.50;75.50
9057;DHT22;4563;54.756;9.400;2023-03-01T13:54:56;8.50;75.50
9057;DHT22;4563;54.756;9.400;2023-03-01T13:57:28;8.50;75.50
9057;DHT22;4563;54.756;9.400;2023-03-01T13:59:57;8.50;75.40
9057;DHT22;4563;54.756;9.400;2023-03-01T14:02:24;8.50;75.30
9057;DHT22;4563;54.756;9.400;2023-03-01T14:04:56;8.50;75.30
9057;DHT22;4563;54.756;9.400;2023-03-01T14:07:24;8.60;75.30
9057;DHT22;4563;54.756;9.400;2023-03-01T14:09:56;8.60;75.20
9057;DHT22;4563;54.756;9.400;2023-03-01T14:12:34;8.60;75.10
9057;DHT22;4563;54.756;9.400;2023-03-01T14:15:13;8.60;75.10
9057;DHT22;4563;54.756;9.400;2023-03-01T14:17:55;8.60;74.90
9057;DHT22;4563;54.756;9.400;2023-03-01T14:20:25;8.70;75.00
9057;DHT22;4563;54.756;9.400;2023-03-01T14:22:55;8.60;74.80
9057;DHT22;4563;54.756;9.400;2023-03-01T14:25:32;8.60;74.80
9057;DHT22;4563;54.756;9.400;2023-03-01T14:28:03;8.70;74.90
9057;DHT22;4563;54.756;9.400;2023-03-01T14:30:34;8.70;74.90
9057;DHT22;4563;54.756;9.400;2023-03-01T14:33:03;8.70;74.80
9057;DHT22;4563;54.756;9.400;2023-03-01T14:35:33;8.70;74.20
9057;DHT22;4563;54.756;9.400;2023-03-01T14:38:00;8.70;74.60
9057;DHT22;4563;54.756;9.400;2023-03-01T14:40:29;8.70;74.60
9057;DHT22;4563;54.756;9.400;2023-03-01T14:42:59;8.70;74.60
9057;DHT22;4563;54.756;9.400;2023-03-01T14:45:28;8.70;74.60
9057;DHT22;4563;54.756;9.400;2023-03-01T14:47:59;8.70;74.60
9057;DHT22;4563;54.756;9.400;2023-03-01T14:50:28;8.70;74.50
9057;DHT22;4563;54.756;9.400;2023-03-01T14:52:58;8.70;74.50
9057;DHT22;4563;54.756;9.400;2023-03-01T14:55:28;8.70;74.40
9057;DHT22;4563;54.756;9.400;2023-03-01T14:57:56;8.70;74.40
9057;DHT22;4563;54.756;9.400;2023-03-01T15:00:26;8.70;74.30
9057;DHT22;4563;54.756;9.400;2023-03-01T15:02:55;8.70;74.20
9057;DHT22;4563;54.756;9.400;2023-03-01T15:05:27;8.70;74.30
9057;DHT22;4563;54.756;9.400;2023-03-01T15:07:56;8.70;74.30
9057;DHT22;4563;54.756;9.400;2023-03-01T15:10:25;8.70;74.30
9057;DHT22;4563;54.756;9.400;2023-03-01T15:12:53;8.80;74.30
9057;DHT22;4563;54.756;9.400;2023-03-01T15:15:32;8.80;74.20
9057;DHT22;4563;54.756;9.400;2023-03-01T15:18:01;8.70;74.00
9057;DHT22;4563;54.756;9.400;2023-03-01T15:20:30;8.80;74.00
9057;DHT22;4563;54.756;9.400;2023-03-01T15:23:02;8.80;74.00
9057;DHT22;4563;54.756;9.400;2023-03-01T15:25:30;8.80;74.10
9057;DHT22;4563;54.756;9.400;2023-03-01T15:27:59;8.80;74.00
9057;DHT22;4563;54.756;9.400;2023-03-01T15:30:29;8.70;74.00
9057;DHT22;4563;54.756;9.400;2023-03-01T15:33:27;8.80;74.00
9057;DHT22;4563;54.756;9.400;2023-03-01T15:35:57;8.80;74.00
9057;DHT22;4563;54.756;9.400;2023-03-01T15:38:30;8.70;73.90
9057;DHT22;4563;54.756;9.400;2023-03-01T15:40:58;8.80;74.00
9057;DHT22;4563;54.756;9.400;2023-03-01T15:43:40;8.80;74.00
9057;DHT22;4563;54.756;9.400;2023-03-01T15:46:16;8.80;73.90
9057;DHT22;4563;54.756;9.400;2023-03-01T15:48:45;8.80;73.80
9057;DHT22;4563;54.756;9.400;2023-03-01T15:51:14;8.70;73.60
9057;DHT22;4563;54.756;9.400;2023-03-01T15:53:42;8.80;73.50
9057;DHT22;4563;54.756;9.400;2023-03-01T15:56:09;8.80;73.50
9057;DHT22;4563;54.756;9.400;2023-03-01T15:58:36;8.70;73.30
9057;DHT22;4563;54.756;9.400;2023-03-01T16:01:03;8.70;73.30
9057;DHT22;4563;54.756;9.400;2023-03-01T16:03:29;8.70;73.20
9057;DHT22;4563;54.756;9.400;2023-03-01T16:05:57;8.70;73.20
9057;DHT22;4563;54.756;9.400;2023-03-01T16:08:25;8.70;73.10
9057;DHT22;4563;54.756;9.400;2023-03-01T16:10:53;8.70;73.10
9057;DHT22;4563;54.756;9.400;2023-03-01T16:13:20;8.60;73.00
9057;DHT22;4563;54.756;9.400;2023-03-01T16:15:47;8.60;73.00
9057;DHT22;4563;54.756;9.400;2023-03-01T16:18:14;8.60;73.00
9057;DHT22;4563;54.756;9.400;2023-03-01T16:20:40;8.60;73.10
9057;DHT22;4563;54.756;9.400;2023-03-01T16:23:08;8.60;73.10
9057;DHT22;4563;54.756;9.400;2023-03-01T16:25:38;8.50;73.10
9057;DHT22;4563;54.756;9.400;2023-03-01T16:28:05;8.50;73.00
9057;DHT22;4563;54.756;9.400;2023-03-01T16:30:34;8.50;73.00
9057;DHT22;4563;54.756;9.400;2023-03-01T16:33:01;8.50;73.00
9057;DHT22;4563;54.756;9.400;2023-03-01T16:35:32;8.50;73.00
9057;DHT22;4563;54.756;9.400;2023-03-01T16:38:00;8.40;73.00
9057;DHT22;4563;54.756;9.400;2023-03-01T16:40:28;8.40;73.00
9057;DHT22;4563;54.756;9.400;2023-03-01T16:42:57;8.40;73.10
9057;DHT22;4563;54.756;9.400;2023-03-01T16:45:27;8.30;73.00
9057;DHT22;4563;54.756;9.400;2023-03-01T16:47:54;8.30;73.10
9057;DHT22;4563;54.756;9.400;2023-03-01T16:50:21;8.30;73.70
9057;DHT22;4563;54.756;9.400;2023-03-01T16:52:47;8.20;72.90
9057;DHT22;4563;54.756;9.400;2023-03-01T16:55:14;8.30;73.00